sensor_id;sensor_type;location;lat;lon;timestamp;pressure;altitude;pressure_sealevel;temperature;humidity
6423;BME280;3244;42.708;23.288;2022-07-09T00:00:41;94963.06;;;21.41;78.07
6423;BME280;3244;42.708;23.288;2022-07-09T00:03:08;94959.78;;;21.39;77.72
6423;BME280;3244;42.708;23.288;2022-07-09T00:05:35;94963.06;;;21.52;77.05
6423;BME280;3244;42.708;23.288;2022-07-09T00:08:02;94961.19;;;21.43;77.51
6423;BME280;3244;42.708;23.288;2022-07-09T00:10:28;94960.13;;;21.46;77.31
6423;BME280;3244;42.708;23.288;2022-07-09T00:12:55;94964.94;;;21.50;76.75
6423;BME280;3244;42.708;23.288;2022-07-09T00:15:24;94961.63;;;21.59;76.31
6423;BME280;3244;42.708;23.288;2022-07-09T00:17:53;94962.78;;;21.66;75.88
6423;BME280;3244;42.708;23.288;2022-07-09T00:20:19;94954.56;;;21.72;75.45
6423;BME280;3244;42.708;23.288;2022-07-09T00:22:46;94946.03;;;21.82;75.13
6423;BME280;3244;42.708;23.288;2022-07-09T00:25:13;94952.38;;;21.89;74.74
6423;BME280;3244;42.708;23.288;2022-07-09T00:27:40;94941.38;;;21.76;75.55
6423;BME280;3244;42.708;23.288;2022-07-09T00:30:07;94936.50;;;21.50;76.56
6423;BME280;3244;42.708;23.288;2022-07-09T00:32:34;94934.75;;;21.17;77.90
6423;BME280;3244;42.708;23.288;2022-07-09T00:35:03;94932.72;;;21.10;78.46
6423;BME280;3244;42.708;23.288;2022-07-09T00:37:30;94927.81;;;20.95;78.81
6423;BME280;3244;42.708;23.288;2022-07-09T00:39:56;94929.44;;;20.74;79.87
6423;BME280;3244;42.708;23.288;2022-07-09T00:42:23;94922.72;;;20.49;80.99
6423;BME280;3244;42.708;23.288;2022-07-09T00:44:50;94928.22;;;20.56;80.83
6423;BME280;3244;42.708;23.288;2022-07-09T00:47:17;94925.88;;;20.42;81.17
6423;BME280;3244;42.708;23.288;2022-07-09T00:49:44;94932.44;;;20.46;81.10
6423;BME280;3244;42.708;23.288;2022-07-09T00:52:13;94927.63;;;20.41;81.53
6423;BME280;3244;42.708;23.288;2022-07-09T00:54:42;94921.75;;;20.39;81.36
6423;BME280;3244;42.708;23.288;2022-07-09T00:57:10;94916.41;;;20.29;82.07
6423;BME280;3244;42.708;23.288;2022-07-09T00:59:38;94912.66;;;20.33;81.64
6423;BME280;3244;42.708;23.288;2022-07-09T01:02:06;94906.88;;;20.43;81.30
6423;BME280;3244;42.708;23.288;2022-07-09T01:04:33;94914.84;;;20.40;81.38
6423;BME280;3244;42.708;23.288;2022-07-09T01:07:00;94909.34;;;20.44;81.12
6423;BME280;3244;42.708;23.288;2022-07-09T01:09:28;94904.53;;;20.51;80.99
6423;BME280;3244;42.708;23.288;2022-07-09T01:11:56;94908.50;;;20.44;80.74
6423;BME280;3244;42.708;23.288;2022-07-09T01:14:23;94908.03;;;20.38;81.18
6423;BME280;3244;42.708;23.288;2022-07-09T01:16:57;94904.50;;;20.40;80.93
6423;BME280;3244;42.708;23.288;2022-07-09T01:19:24;94898.22;;;20.31;81.45
6423;BME280;3244;42.708;23.288;2022-07-09T01:21:53;94904.47;;;20.28;81.31
6423;BME280;3244;42.708;23.288;2022-07-09T01:24:20;94904.41;;;20.41;80.66
6423;BME280;3244;42.708;23.288;2022-07-09T01:26:47;94893.66;;;20.23;81.50
6423;BME280;3244;42.708;23.288;2022-07-09T01:29:14;94900.06;;;20.42;80.83
6423;BME280;3244;42.708;23.288;2022-07-09T01:31:41;94896.44;;;20.55;79.98
6423;BME280;3244;42.708;23.288;2022-07-09T01:34:08;94891.03;;;20.47;80.02
6423;BME280;3244;42.708;23.288;2022-07-09T01:36:35;94891.97;;;20.46;80.37
6423;BME280;3244;42.708;23.288;2022-07-09T01:39:03;94889.63;;;20.43;79.84
6423;BME280;3244;42.708;23.288;2022-07-09T01:41:31;94891.59;;;20.40;80.45
6423;BME280;3244;42.708;23.288;2022-07-09T01:43:57;94894.50;;;20.35;80.45
6423;BME280;3244;42.708;23.288;2022-07-09T01:46:24;94894.28;;;20.38;80.19
6423;BME280;3244;42.708;23.288;2022-07-09T01:48:51;94897.72;;;20.61;79.50
6423;BME280;3244;42.708;23.288;2022-07-09T01:51:18;94889.06;;;20.84;77.88
6423;BME280;3244;42.708;23.288;2022-07-09T01:53:47;94895.66;;;20.99;77.01
6423;BME280;3244;42.708;23.288;2022-07-09T01:56:15;94891.75;;;20.83;77.46
6423;BME280;3244;42.708;23.288;2022-07-09T01:58:42;94895.28;;;20.70;78.04
6423;BME280;3244;42.708;23.288;2022-07-09T02:01:09;94894.81;;;20.65;77.89
6423;BME280;3244;42.708;23.288;2022-07-09T02:03:36;94892.78;;;20.58;78.57
6423;BME280;3244;42.708;23.288;2022-07-09T02:06:03;94883.13;;;20.26;79.67
6423;BME280;3244;42.708;23.288;2022-07-09T02:08:29;94894.38;;;20.25;80.23
6423;BME280;3244;42.708;23.288;2022-07-09T02:10:56;94893.84;;;20.09;80.84
6423;BME280;3244;42.708;23.288;2022-07-09T02:13:24;94889.66;;;20.19;80.37
6423;BME280;3244;42.708;23.288;2022-07-09T02:15:51;94897.06;;;20.24;79.77
6423;BME280;3244;42.708;23.288;2022-07-09T02:18:18;94901.63;;;20.20;79.91
6423;BME280;3244;42.708;23.288;2022-07-09T02:20:45;94896.91;;;20.14;79.83
6423;BME280;3244;42.708;23.288;2022-07-09T02:23:12;94900.50;;;20.00;80.61
6423;BME280;3244;42.708;23.288;2022-07-09T02:25:38;94902.81;;;19.92;80.42
6423;BME280;3244;42.708;23.288;2022-07-09T02:28:05;94905.59;;;19.78;81.47
6423;BME280;3244;42.708;23.288;2022-07-09T02:30:33;94902.66;;;19.83;81.48
6423;BME280;3244;42.708;23.288;2022-07-09T02:33:02;94908.28;;;19.77;81.62
6423;BME280;3244;42.708;23.288;2022-07-09T02:35:29;94911.78;;;19.76;81.96
6423;BME280;3244;42.708;23.288;2022-07-09T02:37:56;94913.06;;;19.81;81.80
6423;BME280;3244;42.708;23.288;2022-07-09T02:40:23;94914.50;;;19.85;81.82
6423;BME280;3244;42.708;23.288;2022-07-09T02:42:49;94914.16;;;19.79;81.74
6423;BME280;3244;42.708;23.288;2022-07-09T02:45:16;94917.41;;;19.81;81.69
6423;BME280;3244;42.708;23.288;2022-07-09T02:47:44;94914.28;;;19.88;81.09
6423;BME280;3244;42.708;23.288;2022-07-09T02:50:11;94906.72;;;19.98;80.79
6423;BME280;3244;42.708;23.288;2022-07-09T02:52:38;94908.13;;;20.02;80.25
6423;BME280;3244;42.708;23.288;2022-07-09T02:55:05;94917.66;;;19.78;81.76
6423;BME280;3244;42.708;23.288;2022-07-09T02:57:32;94918.41;;;19.91;81.05
6423;BME280;3244;42.708;23.288;2022-07-09T02:59:59;94915.28;;;19.75;82.01
6423;BME280;3244;42.708;23.288;2022-07-09T03:02:26;94926.56;;;19.85;81.66
6423;BME280;3244;42.708;23.288;2022-07-09T03:04:54;94922.69;;;19.79;81.72
6423;BME280;3244;42.708;23.288;2022-07-09T03:07:21;94920.44;;;19.75;82.01
6423;BME280;3244;42.708;23.288;2022-07-09T03:09:48;94926.25;;;19.65;82.66
6423;BME280;3244;42.708;23.288;2022-07-09T03:12:15;94918.31;;;19.68;82.90
6423;BME280;3244;42.708;23.288;2022-07-09T03:14:42;94930.31;;;19.81;82.43
6423;BME280;3244;42.708;23.288;2022-07-09T03:17:09;94927.69;;;19.69;82.34
6423;BME280;3244;42.708;23.288;2022-07-09T03:19:36;94921.97;;;19.41;83.65
6423;BME280;3244;42.708;23.288;2022-07-09T03:22:04;94927.97;;;19.41;84.63
6423;BME280;3244;42.708;23.288;2022-07-09T03:24:31;94921.78;;;19.31;84.34
6423;BME280;3244;42.708;23.288;2022-07-09T03:26:58;94926.31;;;19.40;83.88
6423;BME280;3244;42.708;23.288;2022-07-09T03:29:24;94927.34;;;19.50;83.98
6423;BME280;3244;42.708;23.288;2022-07-09T03:31:51;94920.38;;;19.63;83.05
6423;BME280;3244;42.708;23.288;2022-07-09T03:34:19;94923.03;;;19.75;82.83
6423;BME280;3244;42.708;23.288;2022-07-09T03:36:46;94923.28;;;19.83;81.94
6423;BME280;3244;42.708;23.288;2022-07-09T03:39:14;94924.56;;;19.77;82.19
6423;BME280;3244;42.708;23.288;2022-07-09T03:41:41;94922.31;;;19.73;82.67
6423;BME280;3244;42.708;23.288;2022-07-09T03:44:07;94925.28;;;19.79;82.43
6423;BME280;3244;42.708;23.288;2022-07-09T03:46:34;94917.69;;;19.89;82.18
6423;BME280;3244;42.708;23.288;2022-07-09T03:49:01;94916.38;;;19.83;82.16
6423;BME280;3244;42.708;23.288;2022-07-09T03:51:28;94917.06;;;19.85;82.54
6423;BME280;3244;42.708;23.288;2022-07-09T03:53:55;94924.09;;;19.83;82.85
6423;BME280;3244;42.708;23.288;2022-07-09T03:56:23;94930.84;;;19.97;81.43
6423;BME280;3244;42.708;23.288;2022-07-09T03:58:50;94922.13;;;19.87;82.39
6423;BME280;3244;42.708;23.288;2022-07-09T04:01:17;94921.41;;;19.85;82.57
6423;BME280;3244;42.708;23.288;2022-07-09T04:03:43;94920.75;;;19.94;82.23
6423;BME280;3244;42.708;23.288;2022-07-09T04:06:10;94928.22;;;19.86;82.33
6423;BME280;3244;42.708;23.288;2022-07-09T04:08:37;94927.84;;;19.79;83.02
6423;BME280;3244;42.708;23.288;2022-07-09T04:11:04;94921.41;;;19.85;82.72
6423;BME280;3244;42.708;23.288;2022-07-09T04:13:32;94934.66;;;20.04;81.51
6423;BME280;3244;42.708;23.288;2022-07-09T04:15:59;94931.00;;;20.07;81.49
6423;BME280;3244;42.708;23.288;2022-07-09T04:18:26;94936.72;;;19.99;82.16
6423;BME280;3244;42.708;23.288;2022-07-09T04:20:52;94934.38;;;19.96;82.17
6423;BME280;3244;42.708;23.288;2022-07-09T04:23:20;94938.84;;;20.05;81.38
6423;BME280;3244;42.708;23.288;2022-07-09T04:25:46;94936.09;;;20.19;80.14
6423;BME280;3244;42.708;23.288;2022-07-09T04:28:16;94937.75;;;20.20;80.25
6423;BME280;3244;42.708;23.288;2022-07-09T04:30:44;94942.84;;;20.09;81.17
6423;BME280;3244;42.708;23.288;2022-07-09T04:33:11;94950.34;;;20.01;81.08
6423;BME280;3244;42.708;23.288;2022-07-09T04:35:37;94948.13;;;20.08;80.65
6423;BME280;3244;42.708;23.288;2022-07-09T04:38:05;94941.47;;;20.16;80.27
6423;BME280;3244;42.708;23.288;2022-07-09T04:40:31;94930.28;;;20.28;79.84
6423;BME280;3244;42.708;23.288;2022-07-09T04:42:58;94939.53;;;20.31;79.47
6423;BME280;3244;42.708;23.288;2022-07-09T04:45:25;94936.00;;;20.32;79.37
6423;BME280;3244;42.708;23.288;2022-07-09T04:47:53;94932.03;;;20.28;79.35
6423;BME280;3244;42.708;23.288;2022-07-09T04:50:20;94933.94;;;20.37;78.95
6423;BME280;3244;42.708;23.288;2022-07-09T04:52:46;94931.25;;;20.38;78.82
6423;BME280;3244;42.708;23.288;2022-07-09T04:55:13;94933.06;;;20.25;79.49
6423;BME280;3244;42.708;23.288;2022-07-09T04:57:41;94928.97;;;20.23;79.82
6423;BME280;3244;42.708;23.288;2022-07-09T05:00:09;94934.47;;;20.29;79.29
6423;BME280;3244;42.708;23.288;2022-07-09T05:02:36;94937.00;;;20.42;78.61
6423;BME280;3244;42.708;23.288;2022-07-09T05:05:05;94936.94;;;20.31;79.17
6423;BME280;3244;42.708;23.288;2022-07-09T05:07:32;94932.91;;;20.40;79.06
6423;BME280;3244;42.708;23.288;2022-07-09T05:09:59;94947.84;;;20.58;78.13
6423;BME280;3244;42.708;23.288;2022-07-09T05:12:26;94947.00;;;20.58;78.13
6423;BME280;3244;42.708;23.288;2022-07-09T05:14:53;94943.97;;;20.53;78.27
6423;BME280;3244;42.708;23.288;2022-07-09T05:17:22;94949.13;;;20.53;78.46
6423;BME280;3244;42.708;23.288;2022-07-09T05:19:49;94958.97;;;20.59;78.13
6423;BME280;3244;42.708;23.288;2022-07-09T05:22:17;94957.34;;;20.58;78.03
6423;BME280;3244;42.708;23.288;2022-07-09T05:24:44;94956.56;;;20.68;77.66
6423;BME280;3244;42.708;23.288;2022-07-09T05:27:11;94955.50;;;20.82;77.05
6423;BME280;3244;42.708;23.288;2022-07-09T05:29:38;94958.09;;;20.71;77.13
6423;BME280;3244;42.708;23.288;2022-07-09T05:32:06;94963.47;;;20.68;77.11
6423;BME280;3244;42.708;23.288;2022-07-09T05:34:32;94967.25;;;20.75;76.73
6423;BME280;3244;42.708;23.288;2022-07-09T05:36:59;94976.75;;;20.75;76.45
6423;BME280;3244;42.708;23.288;2022-07-09T05:39:27;94967.66;;;20.58;77.21
6423;BME280;3244;42.708;23.288;2022-07-09T05:41:54;94966.28;;;20.54;77.52
6423;BME280;3244;42.708;23.288;2022-07-09T05:44:21;94966.94;;;20.45;77.90
6423;BME280;3244;42.708;23.288;2022-07-09T05:46:48;94968.59;;;20.46;78.18
6423;BME280;3244;42.708;23.288;2022-07-09T05:49:14;94967.44;;;20.50;78.17
6423;BME280;3244;42.708;23.288;2022-07-09T05:51:41;94968.91;;;20.41;78.54
6423;BME280;3244;42.708;23.288;2022-07-09T05:54:08;94967.88;;;20.44;78.67
6423;BME280;3244;42.708;23.288;2022-07-09T05:56:36;94970.00;;;20.50;77.83
6423;BME280;3244;42.708;23.288;2022-07-09T05:59:04;94976.47;;;20.55;77.96
6423;BME280;3244;42.708;23.288;2022-07-09T06:01:31;94966.72;;;20.48;78.71
6423;BME280;3244;42.708;23.288;2022-07-09T06:03:57;94967.56;;;20.35;79.03
6423;BME280;3244;42.708;23.288;2022-07-09T06:06:24;94970.28;;;20.34;79.88
6423;BME280;3244;42.708;23.288;2022-07-09T06:08:51;94970.91;;;20.37;79.07
6423;BME280;3244;42.708;23.288;2022-07-09T06:11:19;94975.63;;;20.44;78.97
6423;BME280;3244;42.708;23.288;2022-07-09T06:13:47;94978.53;;;20.39;79.12
6423;BME280;3244;42.708;23.288;2022-07-09T06:16:13;94975.19;;;20.26;79.78
6423;BME280;3244;42.708;23.288;2022-07-09T06:18:40;94971.84;;;20.13;80.22
6423;BME280;3244;42.708;23.288;2022-07-09T06:21:07;94976.44;;;20.20;79.69
6423;BME280;3244;42.708;23.288;2022-07-09T06:23:34;94977.22;;;20.10;80.57
6423;BME280;3244;42.708;23.288;2022-07-09T06:26:01;94976.44;;;20.20;80.08
6423;BME280;3244;42.708;23.288;2022-07-09T06:28:28;94977.50;;;20.18;80.25
6423;BME280;3244;42.708;23.288;2022-07-09T06:30:56;94987.25;;;20.25;80.15
6423;BME280;3244;42.708;23.288;2022-07-09T06:33:23;94981.88;;;20.28;80.17
6423;BME280;3244;42.708;23.288;2022-07-09T06:35:49;94987.47;;;20.22;80.08
6423;BME280;3244;42.708;23.288;2022-07-09T06:38:16;94979.91;;;20.08;80.77
6423;BME280;3244;42.708;23.288;2022-07-09T06:40:43;94982.66;;;19.94;81.81
6423;BME280;3244;42.708;23.288;2022-07-09T06:43:09;94987.19;;;19.66;82.90
6423;BME280;3244;42.708;23.288;2022-07-09T06:45:37;94992.97;;;19.57;83.66
6423;BME280;3244;42.708;23.288;2022-07-09T06:48:05;94988.66;;;19.45;85.65
6423;BME280;3244;42.708;23.288;2022-07-09T06:50:32;94989.38;;;19.60;84.53
6423;BME280;3244;42.708;23.288;2022-07-09T06:52:59;94995.44;;;19.59;84.49
6423;BME280;3244;42.708;23.288;2022-07-09T06:55:26;94992.50;;;19.52;84.63
6423;BME280;3244;42.708;23.288;2022-07-09T06:57:53;94994.44;;;19.49;85.27
6423;BME280;3244;42.708;23.288;2022-07-09T07:00:20;94991.03;;;19.61;85.03
6423;BME280;3244;42.708;23.288;2022-07-09T07:02:49;94991.22;;;19.58;85.77
6423;BME280;3244;42.708;23.288;2022-07-09T07:05:17;94993.94;;;19.44;86.36
6423;BME280;3244;42.708;23.288;2022-07-09T07:07:44;94990.31;;;19.46;86.87
6423;BME280;3244;42.708;23.288;2022-07-09T07:10:10;94988.75;;;19.56;86.71
6423;BME280;3244;42.708;23.288;2022-07-09T07:12:37;94987.63;;;19.60;85.19
6423;BME280;3244;42.708;23.288;2022-07-09T07:15:06;94997.66;;;19.52;86.65
6423;BME280;3244;42.708;23.288;2022-07-09T07:17:33;94997.22;;;19.58;87.03
6423;BME280;3244;42.708;23.288;2022-07-09T07:20:00;94996.38;;;19.70;86.35
6423;BME280;3244;42.708;23.288;2022-07-09T07:22:28;94992.66;;;19.75;86.80
6423;BME280;3244;42.708;23.288;2022-07-09T07:24:55;94989.19;;;19.87;85.83
6423;BME280;3244;42.708;23.288;2022-07-09T07:27:22;94986.38;;;19.90;85.44
6423;BME280;3244;42.708;23.288;2022-07-09T07:29:48;94988.81;;;20.04;85.33
6423;BME280;3244;42.708;23.288;2022-07-09T07:32:15;94986.38;;;19.90;85.84
6423;BME280;3244;42.708;23.288;2022-07-09T07:34:42;94987.63;;;20.08;83.97
6423;BME280;3244;42.708;23.288;2022-07-09T07:37:09;94983.19;;;20.10;83.40
6423;BME280;3244;42.708;23.288;2022-07-09T07:39:37;94986.34;;;20.02;83.57
6423;BME280;3244;42.708;23.288;2022-07-09T07:42:04;94985.75;;;19.99;85.23
6423;BME280;3244;42.708;23.288;2022-07-09T07:44:32;94988.03;;;20.38;84.04
6423;BME280;3244;42.708;23.288;2022-07-09T07:46:59;94984.47;;;20.52;81.86
6423;BME280;3244;42.708;23.288;2022-07-09T07:49:26;94978.66;;;20.37;83.19
6423;BME280;3244;42.708;23.288;2022-07-09T07:51:52;94981.00;;;20.41;82.98
6423;BME280;3244;42.708;23.288;2022-07-09T07:54:19;94994.03;;;20.39;83.26
6423;BME280;3244;42.708;23.288;2022-07-09T07:56:48;94991.03;;;20.32;82.69
6423;BME280;3244;42.708;23.288;2022-07-09T07:59:15;94994.03;;;20.39;82.87
6423;BME280;3244;42.708;23.288;2022-07-09T08:01:42;94994.63;;;20.43;83.25
6423;BME280;3244;42.708;23.288;2022-07-09T08:04:09;94983.47;;;20.42;82.19
6423;BME280;3244;42.708;23.288;2022-07-09T08:06:36;94989.03;;;20.36;81.71
6423;BME280;3244;42.708;23.288;2022-07-09T08:09:03;94990.63;;;20.38;82.66
6423;BME280;3244;42.708;23.288;2022-07-09T08:11:30;94984.06;;;20.46;82.29
6423;BME280;3244;42.708;23.288;2022-07-09T08:13:58;94978.97;;;20.68;81.77
6423;BME280;3244;42.708;23.288;2022-07-09T08:16:25;94981.22;;;20.84;80.86
6423;BME280;3244;42.708;23.288;2022-07-09T08:18:51;94981.50;;;21.03;78.73
6423;BME280;3244;42.708;23.288;2022-07-09T08:21:18;94981.59;;;21.01;78.66
6423;BME280;3244;42.708;23.288;2022-07-09T08:23:45;94981.59;;;21.01;79.06
6423;BME280;3244;42.708;23.288;2022-07-09T08:26:19;94985.94;;;20.90;78.84
6423;BME280;3244;42.708;23.288;2022-07-09T08:28:47;94990.41;;;21.10;78.45
6423;BME280;3244;42.708;23.288;2022-07-09T08:31:15;94982.56;;;21.00;77.97
6423;BME280;3244;42.708;23.288;2022-07-09T08:33:42;94983.69;;;20.85;78.08
6423;BME280;3244;42.708;23.288;2022-07-09T08:36:08;94982.97;;;20.83;79.45
6423;BME280;3244;42.708;23.288;2022-07-09T08:38:35;94992.84;;;20.89;78.41
6423;BME280;3244;42.708;23.288;2022-07-09T08:41:04;94987.53;;;20.80;78.44
6423;BME280;3244;42.708;23.288;2022-07-09T08:43:32;94990.56;;;20.62;79.91
6423;BME280;3244;42.708;23.288;2022-07-09T08:45:59;94987.97;;;20.51;79.88
6423;BME280;3244;42.708;23.288;2022-07-09T08:48:27;95001.44;;;20.44;80.43
6423;BME280;3244;42.708;23.288;2022-07-09T08:50:55;95004.13;;;20.42;80.78
6423;BME280;3244;42.708;23.288;2022-07-09T08:53:23;94996.66;;;20.26;82.33
6423;BME280;3244;42.708;23.288;2022-07-09T08:55:53;94993.59;;;20.32;81.78
6423;BME280;3244;42.708;23.288;2022-07-09T08:58:20;94989.97;;;20.48;81.16
6423;BME280;3244;42.708;23.288;2022-07-09T09:00:48;94997.13;;;20.31;82.16
6423;BME280;3244;42.708;23.288;2022-07-09T09:03:15;94996.66;;;20.26;82.65
6423;BME280;3244;42.708;23.288;2022-07-09T09:05:44;94997.84;;;20.10;84.57
6423;BME280;3244;42.708;23.288;2022-07-09T09:08:18;94991.00;;;20.21;82.90
6423;BME280;3244;42.708;23.288;2022-07-09T09:10:46;94993.31;;;20.13;82.98
6423;BME280;3244;42.708;23.288;2022-07-09T09:13:14;94997.25;;;20.06;84.04
6423;BME280;3244;42.708;23.288;2022-07-09T09:15:41;94996.69;;;19.90;84.53
6423;BME280;3244;42.708;23.288;2022-07-09T09:18:08;94998.34;;;20.15;83.73
6423;BME280;3244;42.708;23.288;2022-07-09T09:20:35;94997.13;;;20.31;83.52
6423;BME280;3244;42.708;23.288;2022-07-09T09:23:03;94995.59;;;20.53;82.80
6423;BME280;3244;42.708;23.288;2022-07-09T09:25:36;95004.78;;;20.68;81.88
6423;BME280;3244;42.708;23.288;2022-07-09T09:28:04;94994.72;;;20.87;81.44
6423;BME280;3244;42.708;23.288;2022-07-09T09:30:31;95005.81;;;21.00;80.75
6423;BME280;3244;42.708;23.288;2022-07-09T09:32:58;94994.28;;;21.04;81.54
6423;BME280;3244;42.708;23.288;2022-07-09T09:35:26;94994.88;;;21.08;80.51
6423;BME280;3244;42.708;23.288;2022-07-09T09:37:53;94998.28;;;20.97;80.82
6423;BME280;3244;42.708;23.288;2022-07-09T09:40:22;95000.97;;;21.07;79.87
6423;BME280;3244;42.708;23.288;2022-07-09T09:42:49;95009.31;;;21.11;79.83
6423;BME280;3244;42.708;23.288;2022-07-09T09:45:17;95004.50;;;21.06;79.83
6423;BME280;3244;42.708;23.288;2022-07-09T09:47:46;95006.72;;;21.11;79.54
6423;BME280;3244;42.708;23.288;2022-07-09T09:50:16;95002.75;;;21.18;78.94
6423;BME280;3244;42.708;23.288;2022-07-09T09:52:45;94998.81;;;21.25;78.97
6423;BME280;3244;42.708;23.288;2022-07-09T09:55:13;94999.25;;;21.30;78.67
6423;BME280;3244;42.708;23.288;2022-07-09T09:57:42;95007.94;;;21.40;78.60
6423;BME280;3244;42.708;23.288;2022-07-09T10:00:10;95007.69;;;21.54;77.52
6423;BME280;3244;42.708;23.288;2022-07-09T10:02:38;95003.34;;;21.66;77.47
6423;BME280;3244;42.708;23.288;2022-07-09T10:05:06;95006.06;;;21.64;77.46
6423;BME280;3244;42.708;23.288;2022-07-09T10:07:33;95003.47;;;21.76;76.66
6423;BME280;3244;42.708;23.288;2022-07-09T10:10:00;95003.00;;;21.70;76.93
6423;BME280;3244;42.708;23.288;2022-07-09T10:12:28;95003.69;;;21.72;76.84
6423;BME280;3244;42.708;23.288;2022-07-09T10:14:57;94998.06;;;21.67;77.58
6423;BME280;3244;42.708;23.288;2022-07-09T10:17:25;95000.31;;;21.38;79.28
6423;BME280;3244;42.708;23.288;2022-07-09T10:19:53;95005.72;;;21.24;80.42
6423;BME280;3244;42.708;23.288;2022-07-09T10:22:20;95004.41;;;21.19;80.46
6423;BME280;3244;42.708;23.288;2022-07-09T10:24:50;95005.09;;;21.10;80.92
6423;BME280;3244;42.708;23.288;2022-07-09T10:27:17;95005.69;;;21.13;80.09
6423;BME280;3244;42.708;23.288;2022-07-09T10:29:54;95004.81;;;20.79;80.85
6423;BME280;3244;42.708;23.288;2022-07-09T10:32:24;95013.47;;;20.67;82.15
6423;BME280;3244;42.708;23.288;2022-07-09T10:34:56;95017.03;;;20.77;81.75
6423;BME280;3244;42.708;23.288;2022-07-09T10:37:31;95015.38;;;20.87;81.92
6423;BME280;3244;42.708;23.288;2022-07-09T10:40:11;95023.13;;;20.87;80.53
6423;BME280;3244;42.708;23.288;2022-07-09T10:42:39;95019.31;;;20.58;81.43
6423;BME280;3244;42.708;23.288;2022-07-09T10:45:35;95025.47;;;20.79;80.88
6423;BME280;3244;42.708;23.288;2022-07-09T10:48:06;95020.81;;;20.95;79.83
6423;BME280;3244;42.708;23.288;2022-07-09T10:50:40;95014.19;;;20.80;78.60
6423;BME280;3244;42.708;23.288;2022-07-09T10:53:07;95016.06;;;20.67;79.35
6423;BME280;3244;42.708;23.288;2022-07-09T10:55:35;95027.53;;;20.63;78.98
6423;BME280;3244;42.708;23.288;2022-07-09T10:58:02;95021.03;;;20.46;80.04
6423;BME280;3244;42.708;23.288;2022-07-09T11:00:33;95022.16;;;20.66;79.20
6423;BME280;3244;42.708;23.288;2022-07-09T11:03:00;95023.38;;;20.84;78.10
6423;BME280;3244;42.708;23.288;2022-07-09T11:05:31;95021.31;;;21.00;77.30
6423;BME280;3244;42.708;23.288;2022-07-09T11:08:00;95020.94;;;21.05;77.00
6423;BME280;3244;42.708;23.288;2022-07-09T11:10:28;95020.81;;;21.06;77.12
6423;BME280;3244;42.708;23.288;2022-07-09T11:12:55;95024.59;;;21.14;76.77
6423;BME280;3244;42.708;23.288;2022-07-09T11:15:24;95030.03;;;21.22;76.30
6423;BME280;3244;42.708;23.288;2022-07-09T11:17:58;95026.00;;;21.06;75.43
6423;BME280;3244;42.708;23.288;2022-07-09T11:20:26;95029.94;;;20.77;76.51
6423;BME280;3244;42.708;23.288;2022-07-09T11:22:54;95024.97;;;20.63;77.80
6423;BME280;3244;42.708;23.288;2022-07-09T11:25:23;95028.41;;;20.40;78.39
6423;BME280;3244;42.708;23.288;2022-07-09T11:27:51;95030.84;;;20.17;79.10
6423;BME280;3244;42.708;23.288;2022-07-09T11:30:17;95024.53;;;19.97;79.16
6423;BME280;3244;42.708;23.288;2022-07-09T11:32:44;95018.13;;;20.03;79.31
6423;BME280;3244;42.708;23.288;2022-07-09T11:35:12;95021.97;;;20.21;79.01
6423;BME280;3244;42.708;23.288;2022-07-09T11:37:44;95018.34;;;20.24;78.81
6423;BME280;3244;42.708;23.288;2022-07-09T11:40:17;95012.13;;;20.26;77.93
6423;BME280;3244;42.708;23.288;2022-07-09T11:42:44;95016.81;;;20.21;77.94
6423;BME280;3244;42.708;23.288;2022-07-09T11:45:11;95021.28;;;20.30;77.79
6423;BME280;3244;42.708;23.288;2022-07-09T11:47:39;95015.19;;;20.08;78.47
6423;BME280;3244;42.708;23.288;2022-07-09T11:50:08;95021.28;;;19.83;79.98
6423;BME280;3244;42.708;23.288;2022-07-09T11:52:36;95011.22;;;19.67;80.82
6423;BME280;3244;42.708;23.288;2022-07-09T11:55:05;95008.44;;;19.57;81.05
6423;BME280;3244;42.708;23.288;2022-07-09T11:57:35;95014.22;;;19.61;81.33
6423;BME280;3244;42.708;23.288;2022-07-09T12:00:04;95015.13;;;19.73;80.93
6423;BME280;3244;42.708;23.288;2022-07-09T12:02:32;95004.47;;;19.53;81.40
6423;BME280;3244;42.708;23.288;2022-07-09T12:05:00;95014.66;;;19.42;82.06
6423;BME280;3244;42.708;23.288;2022-07-09T12:07:29;95004.25;;;19.31;82.62
6423;BME280;3244;42.708;23.288;2022-07-09T12:10:00;95010.63;;;19.38;82.40
6423;BME280;3244;42.708;23.288;2022-07-09T12:12:27;95007.53;;;19.46;81.22
6423;BME280;3244;42.708;23.288;2022-07-09T12:14:56;95004.69;;;19.50;81.35
6423;BME280;3244;42.708;23.288;2022-07-09T12:17:23;95002.88;;;19.63;80.78
6423;BME280;3244;42.708;23.288;2022-07-09T12:19:51;95001.53;;;19.70;80.53
6423;BME280;3244;42.708;23.288;2022-07-09T12:22:18;95000.09;;;19.66;80.45
6423;BME280;3244;42.708;23.288;2022-07-09T12:24:44;94996.09;;;19.86;79.62
6423;BME280;3244;42.708;23.288;2022-07-09T12:27:11;95000.75;;;20.05;79.14
6423;BME280;3244;42.708;23.288;2022-07-09T12:29:38;94994.72;;;20.17;78.24
6423;BME280;3244;42.708;23.288;2022-07-09T12:32:06;94993.03;;;20.29;77.30
6423;BME280;3244;42.708;23.288;2022-07-09T12:34:34;94999.56;;;20.46;77.56
6423;BME280;3244;42.708;23.288;2022-07-09T12:37:01;94994.53;;;20.55;76.08
6423;BME280;3244;42.708;23.288;2022-07-09T12:39:27;95001.88;;;20.37;76.04
6423;BME280;3244;42.708;23.288;2022-07-09T12:41:54;95000.19;;;20.36;77.44
6423;BME280;3244;42.708;23.288;2022-07-09T12:44:21;94993.72;;;20.55;76.56
6423;BME280;3244;42.708;23.288;2022-07-09T12:46:48;94993.97;;;20.63;75.79
6423;BME280;3244;42.708;23.288;2022-07-09T12:49:16;94988.09;;;20.61;76.68
6423;BME280;3244;42.708;23.288;2022-07-09T12:51:43;94991.84;;;20.57;75.55
6423;BME280;3244;42.708;23.288;2022-07-09T12:54:10;94985.50;;;20.61;76.34
6423;BME280;3244;42.708;23.288;2022-07-09T12:56:36;94986.94;;;20.54;76.20
6423;BME280;3244;42.708;23.288;2022-07-09T12:59:03;94981.06;;;20.52;76.33
6423;BME280;3244;42.708;23.288;2022-07-09T13:01:30;94974.91;;;20.42;76.65
6423;BME280;3244;42.708;23.288;2022-07-09T13:03:57;94982.47;;;20.32;76.46
6423;BME280;3244;42.708;23.288;2022-07-09T13:06:25;94979.84;;;20.21;76.81
6423;BME280;3244;42.708;23.288;2022-07-09T13:08:58;94979.69;;;20.11;77.19
6423;BME280;3244;42.708;23.288;2022-07-09T13:11:25;94981.94;;;20.16;77.40